createdAt,value
2019-05-11T00:01:02.003Z,3.37
2019-05-11T00:03:30.872Z,4.47
2019-05-11T00:06:00.187Z,5.00
2019-05-11T00:08:29.312Z,4.40
2019-05-11T00:10:58.343Z,3.70
2019-05-11T00:13:27.407Z,3.50
2019-05-11T00:15:56.746Z,3.40
2019-05-11T00:18:25.660Z,3.98
2019-05-11T00:20:54.643Z,3.73
2019-05-11T00:23:23.620Z,4.50
2019-05-11T00:25:52.689Z,3.20
2019-05-11T00:28:21.603Z,3.65
2019-05-11T00:30:50.723Z,3.40
2019-05-11T00:33:19.985Z,4.28
2019-05-11T00:35:49.126Z,3.17
2019-05-11T00:38:18.336Z,3.60
2019-05-11T00:40:47.283Z,3.77
2019-05-11T00:43:16.246Z,3.75
2019-05-11T00:45:45.215Z,3.33
2019-05-11T00:48:14.259Z,2.70
2019-05-11T00:50:43.980Z,3.13
2019-05-11T00:53:13.232Z,3.35
2019-05-11T00:55:42.219Z,3.73
2019-05-11T00:58:11.245Z,3.10
2019-05-11T01:00:40.209Z,3.10
2019-05-11T01:03:09.163Z,3.20
2019-05-11T01:05:38.186Z,3.40
2019-05-11T01:08:07.076Z,3.47
2019-05-11T01:10:42.110Z,3.57
2019-05-11T01:13:06.810Z,3.50
2019-05-11T01:15:35.858Z,4.43
2019-05-11T01:18:04.907Z,8.18
2019-05-11T01:20:35.120Z,3.43
2019-05-11T01:23:04.122Z,3.10
2019-05-11T01:25:33.044Z,3.03
2019-05-11T01:28:02.170Z,3.70
2019-05-11T01:30:31.237Z,3.50
2019-05-11T01:33:00.185Z,3.10
2019-05-11T01:35:29.115Z,3.13
2019-05-11T01:37:58.300Z,3.05
2019-05-11T01:40:27.587Z,5.93
2019-05-11T01:42:56.974Z,3.35
2019-05-11T01:45:25.981Z,4.85
2019-05-11T01:47:54.926Z,3.72
2019-05-11T01:50:24.158Z,3.95
2019-05-11T01:52:53.282Z,3.75
2019-05-11T01:55:22.413Z,2.92
2019-05-11T01:57:51.394Z,3.58
2019-05-11T02:00:21.991Z,3.40
2019-05-11T02:02:51.004Z,3.72
2019-05-11T02:05:29.533Z,3.50
2019-05-11T02:07:59.719Z,4.03
2019-05-11T02:10:29.027Z,3.87
2019-05-11T02:12:58.020Z,3.65
2019-05-11T02:15:27.077Z,3.67
2019-05-11T02:17:56.025Z,3.72
2019-05-11T02:20:25.354Z,3.58
2019-05-11T02:22:54.638Z,4.22
2019-05-11T02:25:23.648Z,3.90
2019-05-11T02:27:53.174Z,4.00
2019-05-11T02:30:22.195Z,3.72
2019-05-11T02:32:51.387Z,4.08
2019-05-11T02:35:20.689Z,3.77
2019-05-11T02:37:49.632Z,4.45
2019-05-11T02:40:20.598Z,4.05
2019-05-11T02:42:49.641Z,5.22
2019-05-11T02:45:30.414Z,4.28
2019-05-11T02:47:59.502Z,3.90
2019-05-11T02:50:28.992Z,4.87
2019-05-11T02:52:59.235Z,4.05
2019-05-11T02:55:28.978Z,4.07
2019-05-11T02:57:57.830Z,3.95
2019-05-11T03:00:45.310Z,4.00
2019-05-11T03:03:14.335Z,4.12
2019-05-11T03:05:43.617Z,4.40
2019-05-11T03:08:12.914Z,5.17
2019-05-11T03:10:42.222Z,4.17
2019-05-11T03:13:11.127Z,4.92
2019-05-11T03:15:40.230Z,5.07
2019-05-11T03:18:09.334Z,4.03
2019-05-11T03:20:38.317Z,4.07
2019-05-11T03:23:07.395Z,3.77
2019-05-11T03:25:36.305Z,4.90
2019-05-11T03:28:05.222Z,3.83
2019-05-11T03:30:34.193Z,3.67
2019-05-11T03:33:03.634Z,4.40
2019-05-11T03:35:32.979Z,3.40
2019-05-11T03:38:02.047Z,4.60
2019-05-11T03:40:31.025Z,4.37
2019-05-11T03:43:00.118Z,3.58
2019-05-11T03:45:29.139Z,5.27
2019-05-11T03:47:58.729Z,4.20
2019-05-11T03:50:27.838Z,4.00
2019-05-11T03:52:57.222Z,3.65
2019-05-11T03:55:26.491Z,3.42
2019-05-11T03:57:55.683Z,3.33
2019-05-11T04:00:24.759Z,4.58
2019-05-11T04:02:53.688Z,3.45
2019-05-11T04:05:22.966Z,5.03
2019-05-11T04:07:52.295Z,3.60
2019-05-11T04:10:25.082Z,3.55
2019-05-11T04:12:53.008Z,3.08
2019-05-11T04:15:21.959Z,3.58
2019-05-11T04:17:50.952Z,3.87
2019-05-11T04:20:19.903Z,3.22
2019-05-11T04:22:48.741Z,4.17
2019-05-11T04:25:17.711Z,4.45
2019-05-11T04:27:47.324Z,3.02
2019-05-11T04:30:16.515Z,3.80
2019-05-11T04:32:45.455Z,4.72
2019-05-11T04:35:14.533Z,4.12
2019-05-11T04:37:43.514Z,3.40
2019-05-11T04:40:12.610Z,4.10
2019-05-11T04:42:54.268Z,3.08
2019-05-11T04:45:12.465Z,2.62
2019-05-11T04:47:41.475Z,2.45
2019-05-11T04:50:10.959Z,3.40
2019-05-11T04:52:39.810Z,3.45
2019-05-11T04:55:08.835Z,3.45
2019-05-11T04:57:38.252Z,3.30
2019-05-11T05:00:07.981Z,4.42
2019-05-11T05:02:37.022Z,3.30
2019-05-11T05:05:06.169Z,3.20
2019-05-11T05:07:35.136Z,3.67
2019-05-11T05:10:04.386Z,3.55
2019-05-11T05:12:33.362Z,4.20
2019-05-11T05:15:02.532Z,3.50
2019-05-11T05:17:31.471Z,2.63
2019-05-11T05:20:00.313Z,3.33
2019-05-11T05:22:29.728Z,2.00
2019-05-11T05:24:59.178Z,2.42
2019-05-11T05:27:28.420Z,2.60
2019-05-11T05:29:57.705Z,4.05
2019-05-11T05:32:26.994Z,2.90
2019-05-11T05:34:55.923Z,2.15
2019-05-11T05:37:25.312Z,2.37
2019-05-11T05:39:54.538Z,2.37
2019-05-11T05:42:23.592Z,4.17
2019-05-11T05:44:52.584Z,2.83
2019-05-11T05:47:21.453Z,2.87
2019-05-11T05:49:50.671Z,3.65
2019-05-11T05:52:19.574Z,4.33
2019-05-11T05:54:48.689Z,7.40
2019-05-11T05:57:17.546Z,3.07
2019-05-11T05:59:46.532Z,3.27
2019-05-11T06:02:15.873Z,2.63
2019-05-11T06:04:45.200Z,2.17
2019-05-11T06:07:14.651Z,2.67
2019-05-11T06:09:43.608Z,2.40
2019-05-11T06:12:12.538Z,2.50
2019-05-11T06:14:41.566Z,2.72
2019-05-11T06:17:10.877Z,2.97
2019-05-11T06:19:40.134Z,2.87
2019-05-11T06:22:09.091Z,1.60
2019-05-11T06:24:37.954Z,2.33
2019-05-11T06:27:06.980Z,2.00
2019-05-11T06:29:35.854Z,1.85
2019-05-11T06:32:04.792Z,1.90
2019-05-11T06:34:34.043Z,3.50
2019-05-11T06:37:03.410Z,2.17
2019-05-11T06:39:32.395Z,2.27
2019-05-11T06:42:01.408Z,2.17
2019-05-11T06:44:30.351Z,1.75
2019-05-11T06:46:59.457Z,1.30
2019-05-11T06:49:28.609Z,2.50
2019-05-11T06:51:57.472Z,2.13
2019-05-11T06:54:26.874Z,2.25
2019-05-11T06:56:55.829Z,1.50
2019-05-11T06:59:25.195Z,1.15
2019-05-11T07:01:54.208Z,1.82
2019-05-11T07:04:23.111Z,1.55
2019-05-11T07:06:52.073Z,1.30
2019-05-11T07:09:21.099Z,1.45
2019-05-11T07:11:50.607Z,1.03
2019-05-11T07:14:21.329Z,2.17
2019-05-11T07:16:50.272Z,1.87
2019-05-11T07:19:19.192Z,2.27
2019-05-11T07:21:50.604Z,1.60
2019-05-11T07:24:19.558Z,2.65
2019-05-11T07:26:48.469Z,1.45
2019-05-11T07:29:17.401Z,0.88
2019-05-11T07:31:46.382Z,0.80
2019-05-11T07:34:15.328Z,1.15
2019-05-11T07:36:44.638Z,1.17
2019-05-11T07:39:13.592Z,3.42
2019-05-11T07:41:42.546Z,1.80
2019-05-11T07:44:11.646Z,1.02
2019-05-11T07:46:40.957Z,1.10
2019-05-11T07:49:09.912Z,2.55
2019-05-11T07:51:39.181Z,1.90
2019-05-11T07:54:08.580Z,3.05
2019-05-11T07:56:38.980Z,1.25
2019-05-11T07:59:08.246Z,3.52
2019-05-11T08:01:38.733Z,1.17
2019-05-11T08:04:08.168Z,1.00
2019-05-11T08:06:39.105Z,1.00
2019-05-11T08:09:08.627Z,1.77
2019-05-11T08:11:38.839Z,0.90
2019-05-11T08:14:08.043Z,2.65
2019-05-11T08:16:39.029Z,1.60
2019-05-11T08:19:10.579Z,1.50
2019-05-11T08:21:38.987Z,1.87
2019-05-11T08:24:09.096Z,2.83
2019-05-11T08:26:38.801Z,0.87
2019-05-11T08:29:08.206Z,0.98
2019-05-11T08:31:38.421Z,1.00
2019-05-11T08:34:08.918Z,0.90
2019-05-11T08:36:38.386Z,1.93
2019-05-11T08:39:08.067Z,1.57
2019-05-11T08:41:38.493Z,2.50
2019-05-11T08:44:08.975Z,1.20
2019-05-11T08:46:38.774Z,0.97
2019-05-11T08:49:08.776Z,1.20
2019-05-11T08:51:38.574Z,1.73
2019-05-11T08:54:09.011Z,1.37
2019-05-11T08:56:38.432Z,1.73
2019-05-11T08:59:08.296Z,1.67
2019-05-11T09:01:39.235Z,1.50
2019-05-11T09:04:09.114Z,1.77
2019-05-11T09:06:38.016Z,1.20
2019-05-11T09:09:08.926Z,1.63
2019-05-11T09:11:38.872Z,2.37
2019-05-11T09:14:08.427Z,2.22
2019-05-11T09:16:38.519Z,1.30
2019-05-11T09:19:08.753Z,1.37
2019-05-11T09:21:38.493Z,1.47
2019-05-11T09:24:08.592Z,2.30
2019-05-11T09:26:38.819Z,1.33
2019-05-11T09:29:08.822Z,1.73
2019-05-11T09:31:38.327Z,1.90
2019-05-11T09:34:08.943Z,1.87
2019-05-11T09:36:39.130Z,1.40
2019-05-11T09:39:08.703Z,1.80
2019-05-11T09:41:38.402Z,1.93
2019-05-11T09:44:09.046Z,1.67
2019-05-11T09:46:38.596Z,1.90
2019-05-11T09:49:08.154Z,2.40
2019-05-11T09:51:38.162Z,4.50
2019-05-11T09:54:07.954Z,2.10
2019-05-11T09:56:38.180Z,1.50
2019-05-11T09:59:08.769Z,2.13
2019-05-11T10:01:38.101Z,2.07
2019-05-11T10:04:08.960Z,2.23
2019-05-11T10:06:39.079Z,2.53
2019-05-11T10:09:08.473Z,2.50
2019-05-11T10:11:39.944Z,2.40
2019-05-11T10:14:08.594Z,3.20
2019-05-11T10:16:38.606Z,4.20
2019-05-11T10:19:08.650Z,4.17
2019-05-11T10:21:38.423Z,4.53
2019-05-11T10:24:08.638Z,8.20
2019-05-11T10:26:38.577Z,4.67
2019-05-11T10:29:08.132Z,5.83
2019-05-11T10:31:38.559Z,5.17
2019-05-11T10:34:08.701Z,5.97
2019-05-11T10:36:38.575Z,6.23
2019-05-11T10:39:09.398Z,6.13
2019-05-11T10:41:38.873Z,7.60
2019-05-11T10:44:08.412Z,7.53
2019-05-11T10:46:38.161Z,6.87
2019-05-11T10:49:08.072Z,7.60
2019-05-11T10:51:38.271Z,7.73
2019-05-11T10:54:08.687Z,8.17
2019-05-11T10:56:38.814Z,8.20
2019-05-11T10:59:08.183Z,8.77
2019-05-11T11:01:38.049Z,9.43
2019-05-11T11:04:08.024Z,8.97
2019-05-11T11:06:38.635Z,9.00
2019-05-11T11:09:08.870Z,11.77
2019-05-11T11:11:38.363Z,12.60
2019-05-11T11:14:08.717Z,16.23
2019-05-11T11:16:42.476Z,15.30
2019-05-11T11:19:08.395Z,14.53
2019-05-11T11:21:38.368Z,16.60
2019-05-11T11:24:07.744Z,15.97
2019-05-11T11:26:38.021Z,16.83
2019-05-11T11:29:08.564Z,19.20
2019-05-11T11:31:38.143Z,15.83
2019-05-11T11:34:08.232Z,15.27
2019-05-11T11:36:37.685Z,16.57
2019-05-11T11:39:08.511Z,14.20
2019-05-11T11:41:37.951Z,13.60
2019-05-11T11:44:07.904Z,12.90
2019-05-11T11:46:50.865Z,13.53
2019-05-11T11:49:08.370Z,12.73
2019-05-11T11:51:37.871Z,11.40
2019-05-11T11:54:08.814Z,11.73
2019-05-11T11:56:38.128Z,10.57
2019-05-11T11:59:08.500Z,10.10
2019-05-11T12:01:38.727Z,10.83
2019-05-11T12:04:08.363Z,10.17
2019-05-11T12:06:38.638Z,9.60
2019-05-11T12:09:08.962Z,8.50
2019-05-11T12:11:38.291Z,10.20
2019-05-11T12:14:08.741Z,9.00
2019-05-11T12:16:38.769Z,9.80
2019-05-11T12:19:08.612Z,9.23
2019-05-11T12:21:38.060Z,9.30
2019-05-11T12:24:08.193Z,7.73
2019-05-11T12:26:38.836Z,8.57
2019-05-11T12:29:08.277Z,8.30
2019-05-11T12:31:37.967Z,9.90
2019-05-11T12:34:08.810Z,9.03
2019-05-11T12:36:38.654Z,8.77
2019-05-11T12:39:08.678Z,7.50
2019-05-11T12:41:38.785Z,9.30
2019-05-11T12:44:08.383Z,8.93
2019-05-11T12:46:39.559Z,7.10
2019-05-11T12:49:08.902Z,9.97
2019-05-11T12:51:38.391Z,7.87
2019-05-11T12:54:08.232Z,7.57
2019-05-11T12:56:40.966Z,9.30
2019-05-11T12:59:09.882Z,6.83
2019-05-11T13:01:39.891Z,6.83
2019-05-11T13:04:09.128Z,7.00
2019-05-11T13:06:38.581Z,7.07
2019-05-11T13:09:08.809Z,5.97
2019-05-11T13:11:38.085Z,7.23
2019-05-11T13:14:08.076Z,7.53
2019-05-11T13:16:37.910Z,5.77
2019-05-11T13:19:08.335Z,6.17
2019-05-11T13:21:38.505Z,6.63
2019-05-11T13:24:08.353Z,6.90
2019-05-11T13:26:38.240Z,6.03
2019-05-11T13:29:07.918Z,6.33
2019-05-11T13:31:38.393Z,6.80
2019-05-11T13:34:08.332Z,7.27
2019-05-11T13:36:50.935Z,7.13
2019-05-11T13:39:20.120Z,8.20
2019-05-11T13:41:49.114Z,6.97
2019-05-11T13:44:18.579Z,6.37
2019-05-11T13:46:48.192Z,6.53
2019-05-11T13:49:17.817Z,7.83
2019-05-11T13:51:48.085Z,8.43
2019-05-11T13:54:18.516Z,9.73
2019-05-11T13:56:48.410Z,10.43
2019-05-11T13:59:18.843Z,11.40
2019-05-11T14:01:48.043Z,10.93
2019-05-11T14:04:18.209Z,10.53
2019-05-11T14:06:48.321Z,10.83
2019-05-11T14:09:18.510Z,11.03
2019-05-11T14:11:47.961Z,10.00
2019-05-11T14:14:18.351Z,11.00
2019-05-11T14:16:48.555Z,11.13
2019-05-11T14:19:18.144Z,8.90
2019-05-11T14:21:49.029Z,9.00
2019-05-11T14:24:18.500Z,8.87
2019-05-11T14:26:48.938Z,8.83
2019-05-11T14:29:18.337Z,7.87
2019-05-11T14:31:48.805Z,8.07
2019-05-11T14:34:18.410Z,6.37
2019-05-11T14:36:48.138Z,11.17
2019-05-11T14:39:18.980Z,6.20
2019-05-11T14:41:48.860Z,7.33
2019-05-11T14:44:18.259Z,5.33
2019-05-11T14:46:48.563Z,4.90
2019-05-11T14:49:18.529Z,5.03
2019-05-11T14:51:50.017Z,8.60
2019-05-11T14:54:19.083Z,5.00
2019-05-11T14:56:48.310Z,4.50
2019-05-11T14:59:18.446Z,4.50
2019-05-11T15:01:48.979Z,3.20
2019-05-11T15:04:18.791Z,3.67
2019-05-11T15:06:49.030Z,4.03
2019-05-11T15:09:18.453Z,4.80
2019-05-11T15:11:48.198Z,5.27
2019-05-11T15:14:21.853Z,3.50
2019-05-11T15:16:48.687Z,4.77
2019-05-11T15:19:18.469Z,5.97
2019-05-11T15:21:47.756Z,3.70
2019-05-11T15:24:18.443Z,6.23
2019-05-11T15:26:48.600Z,5.07
2019-05-11T15:29:18.636Z,4.63
2019-05-11T15:31:48.614Z,3.00
2019-05-11T15:34:18.478Z,2.87
2019-05-11T15:36:49.115Z,5.87
2019-05-11T15:39:18.514Z,4.30
2019-05-11T15:41:47.973Z,3.87
2019-05-11T15:44:18.267Z,3.87
2019-05-11T15:46:48.101Z,4.10
2019-05-11T15:49:18.045Z,3.80
2019-05-11T15:51:48.862Z,3.00
2019-05-11T15:54:18.675Z,5.10
2019-05-11T15:56:47.806Z,6.87
2019-05-11T15:59:17.143Z,2.90
2019-05-11T16:01:48.762Z,5.13
2019-05-11T16:04:18.080Z,3.03
2019-05-11T16:06:47.346Z,5.90
2019-05-11T16:09:18.226Z,5.07
2019-05-11T16:11:48.198Z,3.60
2019-05-11T16:14:17.882Z,5.20
2019-05-11T16:16:48.037Z,2.67
2019-05-11T16:19:19.299Z,3.57
2019-05-11T16:21:48.187Z,3.27
2019-05-11T16:24:17.298Z,4.17
2019-05-11T16:26:47.492Z,3.40
2019-05-11T16:29:19.015Z,5.00
2019-05-11T16:31:48.381Z,4.47
2019-05-11T16:34:18.480Z,4.33
2019-05-11T16:36:48.052Z,4.17
2019-05-11T16:39:18.700Z,3.73
2019-05-11T16:41:48.692Z,3.57
2019-05-11T16:44:18.544Z,10.53
2019-05-11T16:46:50.783Z,4.60
2019-05-11T16:49:28.635Z,8.93
2019-05-11T16:51:49.566Z,5.97
2019-05-11T16:54:18.781Z,7.80
2019-05-11T16:56:48.644Z,4.13
2019-05-11T16:59:18.319Z,4.80
2019-05-11T17:01:48.234Z,5.43
2019-05-11T17:04:17.407Z,3.70
2019-05-11T17:06:48.535Z,2.67
2019-05-11T17:09:18.016Z,3.33
2019-05-11T17:11:48.966Z,5.73
2019-05-11T17:14:18.752Z,4.83
2019-05-11T17:16:48.313Z,5.50
2019-05-11T17:19:18.391Z,4.80
2019-05-11T17:21:47.708Z,4.37
2019-05-11T17:24:17.063Z,3.27
2019-05-11T17:26:47.788Z,2.87
2019-05-11T17:29:18.623Z,3.57
2019-05-11T17:31:48.471Z,2.97
2019-05-11T17:34:20.581Z,3.73
2019-05-11T17:36:49.188Z,3.13
2019-05-11T17:39:18.930Z,3.90
2019-05-11T17:41:48.268Z,4.27
2019-05-11T17:44:18.516Z,2.83
2019-05-11T17:46:47.727Z,2.50
2019-05-11T17:49:18.443Z,4.07
2019-05-11T17:51:48.403Z,2.53
2019-05-11T17:54:18.040Z,3.10
2019-05-11T17:56:48.348Z,3.47
2019-05-11T17:59:19.631Z,3.43
2019-05-11T18:01:49.610Z,6.03
2019-05-11T18:04:18.586Z,3.53
2019-05-11T18:06:47.664Z,3.93
2019-05-11T18:09:18.741Z,3.70
2019-05-11T18:11:48.302Z,3.87
2019-05-11T18:14:17.320Z,4.43
2019-05-11T18:16:48.063Z,4.27
2019-05-11T18:19:19.024Z,3.40
2019-05-11T18:21:48.750Z,5.13
2019-05-11T18:24:18.103Z,5.10
2019-05-11T18:26:48.777Z,4.90
2019-05-11T18:29:18.307Z,5.83
2019-05-11T18:31:48.647Z,4.23
2019-05-11T18:34:18.503Z,4.27
2019-05-11T18:36:48.560Z,4.73
2019-05-11T18:39:18.639Z,4.13
2019-05-11T18:41:48.382Z,3.73
2019-05-11T18:44:18.767Z,3.43
2019-05-11T18:46:48.086Z,3.80
2019-05-11T18:49:17.985Z,3.40
2019-05-11T18:51:48.383Z,4.63
2019-05-11T18:54:19.143Z,2.97
2019-05-11T18:56:48.813Z,3.37
2019-05-11T18:59:19.520Z,2.73
2019-05-11T19:01:49.637Z,3.63
2019-05-11T19:04:18.804Z,2.07
2019-05-11T19:06:48.440Z,4.87
2019-05-11T19:09:18.110Z,2.30
2019-05-11T19:11:48.944Z,3.37
2019-05-11T19:14:18.962Z,5.33
2019-05-11T19:16:49.189Z,4.27
2019-05-11T19:19:18.468Z,3.33
2019-05-11T19:21:48.181Z,4.53
2019-05-11T19:24:18.998Z,2.40
2019-05-11T19:26:51.078Z,2.67
2019-05-11T19:29:18.928Z,2.50
2019-05-11T19:31:47.951Z,2.93
2019-05-11T19:34:17.654Z,2.97
2019-05-11T19:36:48.518Z,4.53
2019-05-11T19:39:19.348Z,2.62
2019-05-11T19:41:48.394Z,2.42
2019-05-11T19:44:18.669Z,2.35
2019-05-11T19:46:48.131Z,4.62
2019-05-11T19:49:19.001Z,5.17
2019-05-11T19:51:48.723Z,6.20
2019-05-11T19:54:18.644Z,4.03
2019-05-11T19:56:48.111Z,6.20
2019-05-11T19:59:17.077Z,6.07
2019-05-11T20:01:46.113Z,7.00
2019-05-11T20:04:15.408Z,5.10
2019-05-11T20:06:44.716Z,3.97
2019-05-11T20:09:13.769Z,5.20
2019-05-11T20:11:42.690Z,2.83
2019-05-11T20:14:12.237Z,4.97
2019-05-11T20:16:41.280Z,4.43
2019-05-11T20:19:10.324Z,4.67
2019-05-11T20:21:39.633Z,3.17
2019-05-11T20:24:08.905Z,6.75
2019-05-11T20:26:38.018Z,2.73
2019-05-11T20:29:08.145Z,4.60
2019-05-11T20:31:37.974Z,3.00
2019-05-11T20:34:07.029Z,3.83
2019-05-11T20:36:36.206Z,4.07
2019-05-11T20:39:07.306Z,2.47
2019-05-11T20:41:38.497Z,4.87
2019-05-11T20:44:08.675Z,4.40
2019-05-11T20:46:38.427Z,3.60
2019-05-11T20:49:07.898Z,1.92
2019-05-11T20:51:37.283Z,1.63
2019-05-11T20:54:08.792Z,2.30
2019-05-11T20:56:38.783Z,2.57
2019-05-11T20:59:08.059Z,3.52
2019-05-11T21:01:38.746Z,3.37
2019-05-11T21:04:08.611Z,2.77
2019-05-11T21:06:37.567Z,5.27
2019-05-11T21:09:07.834Z,3.20
2019-05-11T21:11:37.287Z,1.90
2019-05-11T21:14:08.081Z,5.17
2019-05-11T21:16:38.618Z,4.23
2019-05-11T21:19:08.224Z,2.47
2019-05-11T21:21:49.443Z,2.63
2019-05-11T21:24:08.750Z,3.10
2019-05-11T21:26:38.500Z,2.10
2019-05-11T21:29:08.554Z,3.45
2019-05-11T21:31:37.719Z,3.90
2019-05-11T21:34:08.402Z,3.15
2019-05-11T21:36:37.971Z,2.23
2019-05-11T21:39:09.636Z,2.42
2019-05-11T21:41:38.774Z,1.77
2019-05-11T21:44:08.462Z,2.52
2019-05-11T21:46:38.799Z,3.43
2019-05-11T21:49:08.135Z,1.95
2019-05-11T21:51:38.119Z,1.93
2019-05-11T21:54:07.113Z,1.65
2019-05-11T21:56:40.560Z,3.80
2019-05-11T21:59:07.983Z,2.22
2019-05-11T22:01:38.522Z,2.27
2019-05-11T22:04:08.417Z,2.55
2019-05-11T22:06:39.201Z,2.60
2019-05-11T22:09:08.954Z,2.75
2019-05-11T22:11:38.221Z,2.62
2019-05-11T22:14:08.317Z,3.50
2019-05-11T22:16:38.677Z,1.87
2019-05-11T22:19:08.957Z,2.85
2019-05-11T22:21:38.168Z,2.60
2019-05-11T22:24:08.682Z,4.62
2019-05-11T22:26:38.045Z,4.67
2019-05-11T22:29:07.893Z,3.20
2019-05-11T22:31:38.285Z,1.90
2019-05-11T22:34:08.933Z,2.17
2019-05-11T22:36:38.548Z,3.40
2019-05-11T22:39:08.570Z,2.00
2019-05-11T22:41:39.744Z,2.75
2019-05-11T22:44:10.907Z,2.80
2019-05-11T22:46:39.908Z,2.77
2019-05-11T22:49:09.172Z,3.00
2019-05-11T22:51:38.204Z,2.47
2019-05-11T22:54:08.134Z,1.95
2019-05-11T22:56:38.160Z,3.03
2019-05-11T22:59:08.310Z,2.98
2019-05-11T23:01:38.078Z,2.40
2019-05-11T23:04:07.069Z,1.98
2019-05-11T23:06:40.345Z,2.30
2019-05-11T23:09:07.988Z,1.40
2019-05-11T23:11:37.965Z,4.90
2019-05-11T23:14:09.857Z,1.98
2019-05-11T23:16:37.749Z,3.93
2019-05-11T23:19:09.463Z,1.55
2019-05-11T23:21:38.882Z,1.93
2019-05-11T23:24:08.134Z,1.95
2019-05-11T23:26:38.646Z,3.93
2019-05-11T23:29:08.283Z,1.60
2019-05-11T23:31:38.298Z,3.30
2019-05-11T23:34:08.300Z,2.85
2019-05-11T23:36:38.275Z,3.07
2019-05-11T23:39:08.979Z,2.58
2019-05-11T23:41:38.469Z,2.60
2019-05-11T23:44:08.917Z,3.90
2019-05-11T23:46:38.679Z,1.20
2019-05-11T23:49:08.863Z,1.52
2019-05-11T23:51:38.759Z,1.00
2019-05-11T23:54:08.145Z,2.98
2019-05-11T23:56:38.676Z,3.17
2019-05-11T23:59:08.324Z,0.93
